createdAt,value
2018-12-13T00:02:33.352Z,12.20
2018-12-13T00:07:33.282Z,13.10
2018-12-13T00:12:29.446Z,11.30
2018-12-13T00:17:25.617Z,13.13
2018-12-13T00:22:21.970Z,12.20
2018-12-13T00:27:18.114Z,14.10
2018-12-13T00:32:15.306Z,12.50
2018-12-13T00:37:11.577Z,13.10
2018-12-13T00:42:07.835Z,12.60
2018-12-13T00:47:05.236Z,10.70
2018-12-13T00:52:01.451Z,11.00
2018-12-13T00:56:57.679Z,12.53
2018-12-13T01:02:00.733Z,13.37
2018-12-13T01:06:57.091Z,13.70
2018-12-13T01:11:54.395Z,13.60
2018-12-13T01:16:50.515Z,12.17
2018-12-13T01:21:46.777Z,12.30
2018-12-13T01:26:42.995Z,12.30
2018-12-13T01:31:40.355Z,11.73
2018-12-13T01:36:36.575Z,12.00
2018-12-13T01:41:32.765Z,11.80
2018-12-13T01:46:29.642Z,11.33
2018-12-13T01:51:26.437Z,11.00
2018-12-13T01:56:23.234Z,11.80
2018-12-13T02:01:19.371Z,9.77
2018-12-13T02:06:15.458Z,12.10
2018-12-13T02:11:11.587Z,11.47
2018-12-13T02:16:08.625Z,10.50
2018-12-13T02:21:04.774Z,10.63
2018-12-13T02:26:00.867Z,10.60
2018-12-13T02:30:57.011Z,10.10
2018-12-13T02:35:53.153Z,8.67
2018-12-13T02:40:49.290Z,8.20
2018-12-13T02:45:45.380Z,8.30
2018-12-13T02:50:41.549Z,8.40
2018-12-13T02:55:37.682Z,8.40
2018-12-13T03:00:34.155Z,7.67
2018-12-13T03:05:30.277Z,8.23
2018-12-13T03:10:26.339Z,9.57
2018-12-13T03:15:22.455Z,8.70
2018-12-13T03:20:19.685Z,9.53
2018-12-13T03:25:15.792Z,8.70
2018-12-13T03:30:13.112Z,8.90
2018-12-13T03:35:09.257Z,9.30
2018-12-13T03:40:05.689Z,8.57
2018-12-13T03:45:01.879Z,8.90
2018-12-13T03:49:58.075Z,10.77
2018-12-13T03:54:54.210Z,12.90
2018-12-13T03:59:50.342Z,11.00
2018-12-13T04:04:48.636Z,12.40
2018-12-13T04:09:44.718Z,10.50
2018-12-13T04:14:41.850Z,11.90
2018-12-13T04:19:38.005Z,10.90
2018-12-13T04:24:34.354Z,10.70
2018-12-13T04:29:30.488Z,11.23
2018-12-13T04:34:26.700Z,12.43
2018-12-13T04:39:22.807Z,11.63
2018-12-13T04:44:18.980Z,12.00
2018-12-13T04:49:15.101Z,13.90
2018-12-13T04:54:11.209Z,14.53
2018-12-13T04:59:07.329Z,12.83
2018-12-13T05:04:03.492Z,14.53
2018-12-13T05:08:59.600Z,14.60
2018-12-13T05:13:55.774Z,14.27
2018-12-13T05:18:51.916Z,15.30
2018-12-13T05:23:48.013Z,13.70
2018-12-13T05:28:44.112Z,14.53
2018-12-13T05:33:40.205Z,14.93
2018-12-13T05:38:36.347Z,15.03
2018-12-13T05:43:32.454Z,15.00
2018-12-13T05:48:28.681Z,15.40
2018-12-13T05:53:24.775Z,16.00
2018-12-13T05:58:20.896Z,14.17
2018-12-13T06:03:18.116Z,15.07
2018-12-13T06:08:14.235Z,13.10
2018-12-13T06:13:10.411Z,14.87
2018-12-13T06:18:06.963Z,14.43
2018-12-13T06:23:03.416Z,15.30
2018-12-13T06:27:59.531Z,15.80
2018-12-13T06:32:55.638Z,17.70
2018-12-13T06:37:51.850Z,15.23
2018-12-13T06:42:47.982Z,16.67
2018-12-13T06:47:44.236Z,16.27
2018-12-13T06:52:40.307Z,17.37
2018-12-13T06:57:36.362Z,16.20
2018-12-13T07:02:33.240Z,16.40
2018-12-13T07:07:36.027Z,16.53
2018-12-13T07:12:34.117Z,17.43
2018-12-13T07:17:32.720Z,17.67
2018-12-13T07:22:30.690Z,16.40
2018-12-13T07:27:28.768Z,16.07
2018-12-13T07:32:29.372Z,15.50
2018-12-13T07:37:25.637Z,16.23
2018-12-13T07:42:21.729Z,15.73
2018-12-13T07:47:17.856Z,16.30
2018-12-13T07:52:14.016Z,16.40
2018-12-13T07:57:10.081Z,16.03
2018-12-13T08:02:07.492Z,17.23
2018-12-13T08:07:03.698Z,16.03
2018-12-13T08:11:59.848Z,16.73
2018-12-13T08:16:56.052Z,16.57
2018-12-13T08:21:52.249Z,16.30
2018-12-13T08:26:48.369Z,16.60
2018-12-13T08:31:47.592Z,17.63
2018-12-13T08:36:43.735Z,16.73
2018-12-13T08:41:39.849Z,17.57
2018-12-13T08:46:36.682Z,16.17
2018-12-13T08:51:33.021Z,17.53
2018-12-13T08:56:29.208Z,16.07
2018-12-13T09:01:25.438Z,19.00
2018-12-13T09:06:21.608Z,16.93
2018-12-13T09:11:19.157Z,16.37
2018-12-13T09:16:17.007Z,18.77
2018-12-13T09:21:14.291Z,17.87
2018-12-13T09:26:14.486Z,16.63
2018-12-13T09:31:11.526Z,17.80
2018-12-13T09:36:11.328Z,19.03
2018-12-13T09:41:08.931Z,17.23
2018-12-13T09:46:06.731Z,15.90
2018-12-13T09:51:03.819Z,18.73
2018-12-13T09:55:59.934Z,16.83
2018-12-13T10:00:56.007Z,16.47
2018-12-13T10:05:52.314Z,17.50
2018-12-13T10:10:48.381Z,16.93
2018-12-13T10:15:44.498Z,16.00
2018-12-13T10:20:40.617Z,15.83
2018-12-13T10:25:36.684Z,16.90
2018-12-13T10:30:33.738Z,16.50
2018-12-13T10:35:29.908Z,17.37
2018-12-13T10:40:26.512Z,14.50
2018-12-13T10:45:22.688Z,13.60
2018-12-13T10:50:18.787Z,14.80
2018-12-13T10:55:14.969Z,16.07
2018-12-13T11:00:14.345Z,15.37
2018-12-13T11:05:10.810Z,13.87
2018-12-13T11:10:08.162Z,14.40
2018-12-13T11:15:04.593Z,13.20
2018-12-13T11:20:00.680Z,14.00
2018-12-13T11:24:56.853Z,12.27
2018-12-13T11:30:05.177Z,10.33
2018-12-13T11:35:01.262Z,10.60
2018-12-13T11:39:57.366Z,8.90
2018-12-13T11:44:53.531Z,8.80
2018-12-13T11:49:49.589Z,8.80
2018-12-13T11:54:45.718Z,6.93
2018-12-13T11:59:41.858Z,8.70
2018-12-13T12:04:38.022Z,7.57
2018-12-13T12:09:34.249Z,9.87
2018-12-13T12:14:30.335Z,8.67
2018-12-13T12:19:26.368Z,9.10
2018-12-13T12:24:22.970Z,9.07
2018-12-13T12:29:19.102Z,9.03
2018-12-13T12:34:15.432Z,9.63
2018-12-13T12:39:11.496Z,8.07
2018-12-13T12:44:07.551Z,10.30
2018-12-13T12:49:03.674Z,9.83
2018-12-13T12:53:59.894Z,9.73
2018-12-13T12:58:56.065Z,9.60
2018-12-13T13:03:53.618Z,9.47
2018-12-13T13:08:49.777Z,8.00
2018-12-13T13:13:45.918Z,8.97
2018-12-13T13:18:42.002Z,8.47
2018-12-13T13:23:38.082Z,8.20
2018-12-13T13:28:34.450Z,6.90
2018-12-13T13:33:30.623Z,5.40
2018-12-13T13:38:26.754Z,5.73
2018-12-13T13:43:22.863Z,6.60
2018-12-13T13:48:18.994Z,6.00
2018-12-13T13:53:16.272Z,6.27
2018-12-13T13:58:12.765Z,6.17
2018-12-13T14:03:10.223Z,5.13
2018-12-13T14:08:06.861Z,5.00
2018-12-13T14:13:07.051Z,6.20
2018-12-13T14:18:03.584Z,5.60
2018-12-13T14:23:00.165Z,6.67
2018-12-13T14:27:56.598Z,6.90
2018-12-13T14:32:53.475Z,6.30
2018-12-13T14:37:49.567Z,6.20
2018-12-13T14:42:45.745Z,6.80
2018-12-13T14:47:41.865Z,6.37
2018-12-13T14:52:37.925Z,6.60
2018-12-13T14:57:34.027Z,6.47
2018-12-13T15:02:30.952Z,7.03
2018-12-13T15:07:27.036Z,7.27
2018-12-13T15:12:23.193Z,8.13
2018-12-13T15:17:19.374Z,6.50
2018-12-13T15:22:15.464Z,6.90
2018-12-13T15:27:11.532Z,7.77
2018-12-13T15:32:11.795Z,8.83
2018-12-13T15:37:10.260Z,9.40
2018-12-13T15:42:06.359Z,8.70
2018-12-13T15:47:02.422Z,9.27
2018-12-13T15:51:58.581Z,10.03
2018-12-13T15:56:54.633Z,8.33
2018-12-13T16:01:52.931Z,6.53
2018-12-13T16:06:49.035Z,7.47
2018-12-13T16:11:45.058Z,7.43
2018-12-13T16:16:41.125Z,7.90
2018-12-13T16:21:37.346Z,8.27
2018-12-13T16:26:34.978Z,7.40
2018-12-13T16:31:31.106Z,7.60
2018-12-13T16:36:27.265Z,7.90
2018-12-13T16:41:23.322Z,8.53
2018-12-13T16:46:19.371Z,9.00
2018-12-13T16:51:15.517Z,8.00
2018-12-13T16:56:11.660Z,7.50
2018-12-13T17:01:07.749Z,7.23
2018-12-13T17:06:04.117Z,8.67
2018-12-13T17:11:00.289Z,8.00
2018-12-13T17:15:56.330Z,9.50
2018-12-13T17:20:52.397Z,8.33
2018-12-13T17:25:48.461Z,8.30
2018-12-13T17:30:44.507Z,8.60
2018-12-13T17:35:40.554Z,8.60
2018-12-13T17:40:36.639Z,8.60
2018-12-13T17:45:32.788Z,9.50
2018-12-13T17:50:28.928Z,10.03
2018-12-13T17:55:25.018Z,10.17
2018-12-13T18:00:21.068Z,8.80
2018-12-13T18:05:17.103Z,10.17
2018-12-13T18:10:13.146Z,10.27
2018-12-13T18:15:09.295Z,10.50
2018-12-13T18:20:05.608Z,10.53
2018-12-13T18:25:01.865Z,10.77
2018-12-13T18:29:57.918Z,9.80
2018-12-13T18:34:53.963Z,12.23
2018-12-13T18:39:50.020Z,10.37
2018-12-13T18:44:46.049Z,10.90
2018-12-13T18:49:42.087Z,10.97
2018-12-13T18:54:38.208Z,10.90
2018-12-13T18:59:34.248Z,10.20
2018-12-13T19:04:30.277Z,11.00
2018-12-13T19:09:26.316Z,11.87
2018-12-13T19:14:22.354Z,11.70
2018-12-13T19:19:18.406Z,10.40
2018-12-13T19:24:14.440Z,10.70
2018-12-13T19:29:10.497Z,10.27
2018-12-13T19:34:06.544Z,10.37
2018-12-13T19:39:04.654Z,10.97
2018-12-13T19:44:01.461Z,9.97
2018-12-13T19:48:58.130Z,11.00
2018-12-13T19:53:54.829Z,10.10
2018-12-13T19:58:51.313Z,10.97
2018-12-13T20:03:47.985Z,10.43
2018-12-13T20:08:44.615Z,10.13
2018-12-13T20:13:41.234Z,10.53
2018-12-13T20:18:37.853Z,11.47
2018-12-13T20:23:34.492Z,11.40
2018-12-13T20:28:31.156Z,11.10
2018-12-13T20:33:27.791Z,10.20
2018-12-13T20:38:24.430Z,12.17
2018-12-13T20:43:20.787Z,10.57
2018-12-13T20:48:17.406Z,11.47
2018-12-13T20:53:13.973Z,9.97
2018-12-13T20:58:10.687Z,11.33
2018-12-13T21:03:06.719Z,11.93
2018-12-13T21:08:07.939Z,12.47
2018-12-13T21:13:04.074Z,11.30
2018-12-13T21:18:00.234Z,10.63
2018-12-13T21:22:56.262Z,11.00
2018-12-13T21:27:52.346Z,11.40
2018-12-13T21:32:49.399Z,11.10
2018-12-13T21:37:45.959Z,11.40
2018-12-13T21:42:42.458Z,11.63
2018-12-13T21:47:38.984Z,13.33
2018-12-13T21:52:35.636Z,12.70
2018-12-13T21:57:32.122Z,11.90
2018-12-13T22:02:28.937Z,11.70
2018-12-13T22:07:24.973Z,13.03
2018-12-13T22:12:21.007Z,12.73
2018-12-13T22:17:17.181Z,12.03
2018-12-13T22:22:14.055Z,13.47
2018-12-13T22:27:10.085Z,14.37
2018-12-13T22:32:09.325Z,13.50
2018-12-13T22:37:06.374Z,14.20
2018-12-13T22:42:02.772Z,13.30
2018-12-13T22:46:59.204Z,13.40
2018-12-13T22:51:55.946Z,14.23
2018-12-13T22:56:52.417Z,13.60
2018-12-13T23:01:49.491Z,13.93
2018-12-13T23:06:45.993Z,14.13
2018-12-13T23:11:42.309Z,12.40
2018-12-13T23:16:38.862Z,14.90
2018-12-13T23:21:35.558Z,14.30
2018-12-13T23:26:32.158Z,6.83
2018-12-13T23:31:28.554Z,15.23
2018-12-13T23:36:24.892Z,13.70
2018-12-13T23:41:21.296Z,15.30
2018-12-13T23:46:17.625Z,14.63
2018-12-13T23:51:13.909Z,14.67
2018-12-13T23:56:09.959Z,16.10
